sensor_id;sensor_type;location;lat;lon;timestamp;P1;durP1;ratioP1;P2;durP2;ratioP2
67869;SDS011;54673;52.262;6.830;2022-11-24T00:01:24;2.70;;;1.40;;
67869;SDS011;54673;52.262;6.830;2022-11-24T00:03:56;2.20;;;1.20;;
67869;SDS011;54673;52.262;6.830;2022-11-24T00:06:26;3.80;;;1.20;;
67869;SDS011;54673;52.262;6.830;2022-11-24T00:08:52;3.57;;;1.30;;
67869;SDS011;54673;52.262;6.830;2022-11-24T00:11:20;2.72;;;1.17;;
67869;SDS011;54673;52.262;6.830;2022-11-24T00:13:48;1.97;;;1.07;;
67869;SDS011;54673;52.262;6.830;2022-11-24T00:18:40;3.27;;;1.30;;
67869;SDS011;54673;52.262;6.830;2022-11-24T00:21:07;3.10;;;1.20;;
67869;SDS011;54673;52.262;6.830;2022-11-24T00:23:34;4.25;;;1.38;;
67869;SDS011;54673;52.262;6.830;2022-11-24T00:26:04;3.10;;;1.30;;
67869;SDS011;54673;52.262;6.830;2022-11-24T00:28:37;2.50;;;1.30;;
67869;SDS011;54673;52.262;6.830;2022-11-24T00:31:04;3.30;;;1.40;;
67869;SDS011;54673;52.262;6.830;2022-11-24T00:33:38;4.95;;;1.42;;
67869;SDS011;54673;52.262;6.830;2022-11-24T00:36:03;5.47;;;1.30;;
67869;SDS011;54673;52.262;6.830;2022-11-24T00:38:29;2.50;;;1.20;;
67869;SDS011;54673;52.262;6.830;2022-11-24T00:40:55;2.73;;;1.30;;
67869;SDS011;54673;52.262;6.830;2022-11-24T00:43:20;2.78;;;1.40;;
67869;SDS011;54673;52.262;6.830;2022-11-24T00:45:46;2.90;;;1.40;;
67869;SDS011;54673;52.262;6.830;2022-11-24T00:48:12;2.42;;;1.38;;
67869;SDS011;54673;52.262;6.830;2022-11-24T00:50:38;3.50;;;1.37;;
67869;SDS011;54673;52.262;6.830;2022-11-24T00:53:03;5.80;;;1.80;;
67869;SDS011;54673;52.262;6.830;2022-11-24T00:55:29;3.10;;;1.50;;
67869;SDS011;54673;52.262;6.830;2022-11-24T00:57:54;2.42;;;1.30;;
67869;SDS011;54673;52.262;6.830;2022-11-24T01:00:20;2.50;;;1.17;;
67869;SDS011;54673;52.262;6.830;2022-11-24T01:02:46;3.88;;;1.42;;
67869;SDS011;54673;52.262;6.830;2022-11-24T01:05:11;3.27;;;1.47;;
67869;SDS011;54673;52.262;6.830;2022-11-24T01:07:37;4.35;;;1.50;;
67869;SDS011;54673;52.262;6.830;2022-11-24T01:10:03;3.70;;;1.30;;
67869;SDS011;54673;52.262;6.830;2022-11-24T01:12:29;2.80;;;1.30;;
67869;SDS011;54673;52.262;6.830;2022-11-24T01:14:55;4.23;;;1.47;;
67869;SDS011;54673;52.262;6.830;2022-11-24T01:17:21;3.72;;;1.27;;
67869;SDS011;54673;52.262;6.830;2022-11-24T01:19:47;2.70;;;1.47;;
67869;SDS011;54673;52.262;6.830;2022-11-24T01:22:13;3.55;;;1.55;;
67869;SDS011;54673;52.262;6.830;2022-11-24T01:24:39;5.30;;;1.60;;
67869;SDS011;54673;52.262;6.830;2022-11-24T01:27:05;3.78;;;1.40;;
67869;SDS011;54673;52.262;6.830;2022-11-24T01:29:31;3.93;;;1.80;;
67869;SDS011;54673;52.262;6.830;2022-11-24T01:31:57;3.55;;;1.17;;
67869;SDS011;54673;52.262;6.830;2022-11-24T01:34:22;2.73;;;1.07;;
67869;SDS011;54673;52.262;6.830;2022-11-24T01:36:48;3.08;;;1.38;;
67869;SDS011;54673;52.262;6.830;2022-11-24T01:39:14;2.57;;;1.40;;
67869;SDS011;54673;52.262;6.830;2022-11-24T01:41:40;4.63;;;1.10;;
67869;SDS011;54673;52.262;6.830;2022-11-24T01:44:19;2.63;;;1.35;;
67869;SDS011;54673;52.262;6.830;2022-11-24T01:46:51;2.50;;;1.43;;
67869;SDS011;54673;52.262;6.830;2022-11-24T01:49:27;5.63;;;1.70;;
67869;SDS011;54673;52.262;6.830;2022-11-24T01:52:12;4.23;;;1.67;;
67869;SDS011;54673;52.262;6.830;2022-11-24T01:54:49;4.50;;;1.33;;
67869;SDS011;54673;52.262;6.830;2022-11-24T01:57:25;3.42;;;1.20;;
67869;SDS011;54673;52.262;6.830;2022-11-24T01:59:56;3.47;;;1.30;;
67869;SDS011;54673;52.262;6.830;2022-11-24T02:02:27;3.83;;;1.20;;
67869;SDS011;54673;52.262;6.830;2022-11-24T02:04:54;3.03;;;1.50;;
67869;SDS011;54673;52.262;6.830;2022-11-24T02:07:22;3.10;;;1.30;;
67869;SDS011;54673;52.262;6.830;2022-11-24T02:09:57;2.22;;;1.10;;
67869;SDS011;54673;52.262;6.830;2022-11-24T02:12:26;4.70;;;1.60;;
67869;SDS011;54673;52.262;6.830;2022-11-24T02:14:52;5.20;;;1.40;;
67869;SDS011;54673;52.262;6.830;2022-11-24T02:17:19;4.93;;;1.40;;
67869;SDS011;54673;52.262;6.830;2022-11-24T02:20:05;3.65;;;1.20;;
67869;SDS011;54673;52.262;6.830;2022-11-24T02:22:50;4.75;;;1.10;;
67869;SDS011;54673;52.262;6.830;2022-11-24T02:28:27;5.05;;;1.50;;
67869;SDS011;54673;52.262;6.830;2022-11-24T02:30:57;3.20;;;1.07;;
67869;SDS011;54673;52.262;6.830;2022-11-24T02:33:24;3.72;;;1.02;;
67869;SDS011;54673;52.262;6.830;2022-11-24T02:35:51;2.67;;;1.35;;
67869;SDS011;54673;52.262;6.830;2022-11-24T02:38:17;2.87;;;1.30;;
67869;SDS011;54673;52.262;6.830;2022-11-24T02:40:47;3.35;;;1.35;;
67869;SDS011;54673;52.262;6.830;2022-11-24T02:43:15;2.87;;;1.10;;
67869;SDS011;54673;52.262;6.830;2022-11-24T02:45:44;4.93;;;1.50;;
67869;SDS011;54673;52.262;6.830;2022-11-24T02:48:12;1.83;;;1.02;;
67869;SDS011;54673;52.262;6.830;2022-11-24T02:50:41;4.07;;;1.00;;
67869;SDS011;54673;52.262;6.830;2022-11-24T02:53:06;2.53;;;1.40;;
67869;SDS011;54673;52.262;6.830;2022-11-24T02:55:32;3.03;;;1.10;;
67869;SDS011;54673;52.262;6.830;2022-11-24T02:57:58;4.72;;;1.30;;
67869;SDS011;54673;52.262;6.830;2022-11-24T03:00:23;3.00;;;0.90;;
67869;SDS011;54673;52.262;6.830;2022-11-24T03:02:49;3.28;;;1.00;;
67869;SDS011;54673;52.262;6.830;2022-11-24T03:05:15;2.57;;;1.07;;
67869;SDS011;54673;52.262;6.830;2022-11-24T03:07:40;2.55;;;1.00;;
67869;SDS011;54673;52.262;6.830;2022-11-24T03:10:06;5.10;;;1.17;;
67869;SDS011;54673;52.262;6.830;2022-11-24T03:12:32;3.10;;;1.30;;
67869;SDS011;54673;52.262;6.830;2022-11-24T03:14:58;4.37;;;1.07;;
67869;SDS011;54673;52.262;6.830;2022-11-24T03:17:23;2.97;;;1.30;;
67869;SDS011;54673;52.262;6.830;2022-11-24T03:19:49;5.05;;;1.25;;
67869;SDS011;54673;52.262;6.830;2022-11-24T03:22:14;3.83;;;1.07;;
67869;SDS011;54673;52.262;6.830;2022-11-24T03:24:40;4.22;;;1.10;;
67869;SDS011;54673;52.262;6.830;2022-11-24T03:27:06;3.70;;;1.20;;
67869;SDS011;54673;52.262;6.830;2022-11-24T03:29:31;3.73;;;1.40;;
67869;SDS011;54673;52.262;6.830;2022-11-24T03:31:57;2.95;;;1.17;;
67869;SDS011;54673;52.262;6.830;2022-11-24T03:34:23;3.97;;;1.10;;
67869;SDS011;54673;52.262;6.830;2022-11-24T03:36:48;3.70;;;1.20;;
67869;SDS011;54673;52.262;6.830;2022-11-24T03:39:14;3.47;;;1.33;;
67869;SDS011;54673;52.262;6.830;2022-11-24T03:41:40;5.75;;;1.10;;
67869;SDS011;54673;52.262;6.830;2022-11-24T03:44:06;3.03;;;0.90;;
67869;SDS011;54673;52.262;6.830;2022-11-24T03:46:32;3.88;;;1.23;;
67869;SDS011;54673;52.262;6.830;2022-11-24T03:48:57;3.83;;;1.33;;
67869;SDS011;54673;52.262;6.830;2022-11-24T03:51:23;4.80;;;1.60;;
67869;SDS011;54673;52.262;6.830;2022-11-24T03:53:48;4.00;;;1.50;;
67869;SDS011;54673;52.262;6.830;2022-11-24T03:56:14;2.20;;;0.97;;
67869;SDS011;54673;52.262;6.830;2022-11-24T03:58:40;3.80;;;1.13;;
67869;SDS011;54673;52.262;6.830;2022-11-24T04:01:06;5.68;;;1.30;;
67869;SDS011;54673;52.262;6.830;2022-11-24T04:03:32;2.00;;;0.93;;
67869;SDS011;54673;52.262;6.830;2022-11-24T04:05:57;3.78;;;1.17;;
67869;SDS011;54673;52.262;6.830;2022-11-24T04:08:23;3.27;;;1.30;;
67869;SDS011;54673;52.262;6.830;2022-11-24T04:10:49;3.22;;;1.30;;
67869;SDS011;54673;52.262;6.830;2022-11-24T04:13:17;4.10;;;1.20;;
67869;SDS011;54673;52.262;6.830;2022-11-24T04:15:44;4.28;;;0.80;;
67869;SDS011;54673;52.262;6.830;2022-11-24T04:18:10;4.07;;;1.20;;
67869;SDS011;54673;52.262;6.830;2022-11-24T04:20:37;2.47;;;1.20;;
67869;SDS011;54673;52.262;6.830;2022-11-24T04:23:03;5.03;;;1.10;;
67869;SDS011;54673;52.262;6.830;2022-11-24T04:25:29;2.90;;;1.20;;
67869;SDS011;54673;52.262;6.830;2022-11-24T04:27:54;2.57;;;1.20;;
67869;SDS011;54673;52.262;6.830;2022-11-24T04:30:21;5.18;;;1.20;;
67869;SDS011;54673;52.262;6.830;2022-11-24T04:32:48;4.03;;;1.20;;
67869;SDS011;54673;52.262;6.830;2022-11-24T04:35:14;3.27;;;1.07;;
67869;SDS011;54673;52.262;6.830;2022-11-24T04:37:39;4.22;;;1.15;;
67869;SDS011;54673;52.262;6.830;2022-11-24T04:40:06;4.30;;;1.03;;
67869;SDS011;54673;52.262;6.830;2022-11-24T04:42:33;4.07;;;1.38;;
67869;SDS011;54673;52.262;6.830;2022-11-24T04:44:59;4.13;;;1.10;;
67869;SDS011;54673;52.262;6.830;2022-11-24T04:47:25;3.85;;;1.00;;
67869;SDS011;54673;52.262;6.830;2022-11-24T04:49:51;3.87;;;1.20;;
67869;SDS011;54673;52.262;6.830;2022-11-24T04:52:17;3.38;;;1.20;;
67869;SDS011;54673;52.262;6.830;2022-11-24T04:54:44;4.15;;;1.00;;
67869;SDS011;54673;52.262;6.830;2022-11-24T04:57:18;3.27;;;1.10;;
67869;SDS011;54673;52.262;6.830;2022-11-24T04:59:48;3.47;;;0.90;;
67869;SDS011;54673;52.262;6.830;2022-11-24T05:02:14;4.80;;;1.17;;
67869;SDS011;54673;52.262;6.830;2022-11-24T05:04:40;3.40;;;1.10;;
67869;SDS011;54673;52.262;6.830;2022-11-24T05:07:06;3.50;;;1.17;;
67869;SDS011;54673;52.262;6.830;2022-11-24T05:09:37;3.27;;;0.97;;
67869;SDS011;54673;52.262;6.830;2022-11-24T05:12:22;2.05;;;0.85;;
67869;SDS011;54673;52.262;6.830;2022-11-24T05:14:48;4.17;;;1.30;;
67869;SDS011;54673;52.262;6.830;2022-11-24T05:17:14;3.65;;;1.13;;
67869;SDS011;54673;52.262;6.830;2022-11-24T05:19:40;5.53;;;1.30;;
67869;SDS011;54673;52.262;6.830;2022-11-24T05:22:06;2.65;;;0.80;;
67869;SDS011;54673;52.262;6.830;2022-11-24T05:24:31;2.50;;;1.07;;
67869;SDS011;54673;52.262;6.830;2022-11-24T05:26:57;3.70;;;1.00;;
67869;SDS011;54673;52.262;6.830;2022-11-24T05:29:22;2.45;;;1.13;;
67869;SDS011;54673;52.262;6.830;2022-11-24T05:31:48;2.27;;;1.00;;
67869;SDS011;54673;52.262;6.830;2022-11-24T05:34:13;4.20;;;0.83;;
67869;SDS011;54673;52.262;6.830;2022-11-24T05:36:39;5.13;;;1.10;;
67869;SDS011;54673;52.262;6.830;2022-11-24T05:39:17;1.92;;;1.30;;
67869;SDS011;54673;52.262;6.830;2022-11-24T05:41:43;4.77;;;1.10;;
67869;SDS011;54673;52.262;6.830;2022-11-24T05:44:08;4.43;;;1.03;;
67869;SDS011;54673;52.262;6.830;2022-11-24T05:46:34;2.80;;;1.03;;
67869;SDS011;54673;52.262;6.830;2022-11-24T05:48:59;5.53;;;1.40;;
67869;SDS011;54673;52.262;6.830;2022-11-24T05:51:25;5.75;;;1.38;;
67869;SDS011;54673;52.262;6.830;2022-11-24T05:53:51;2.87;;;1.10;;
67869;SDS011;54673;52.262;6.830;2022-11-24T05:56:16;4.10;;;1.35;;
67869;SDS011;54673;52.262;6.830;2022-11-24T05:58:42;3.73;;;1.10;;
67869;SDS011;54673;52.262;6.830;2022-11-24T06:01:07;2.27;;;1.30;;
67869;SDS011;54673;52.262;6.830;2022-11-24T06:03:33;4.03;;;1.25;;
67869;SDS011;54673;52.262;6.830;2022-11-24T06:05:58;3.47;;;1.17;;
67869;SDS011;54673;52.262;6.830;2022-11-24T06:08:24;5.30;;;1.13;;
67869;SDS011;54673;52.262;6.830;2022-11-24T06:10:50;2.20;;;1.20;;
67869;SDS011;54673;52.262;6.830;2022-11-24T06:13:15;4.77;;;1.03;;
67869;SDS011;54673;52.262;6.830;2022-11-24T06:15:41;4.28;;;1.38;;
67869;SDS011;54673;52.262;6.830;2022-11-24T06:18:06;7.20;;;1.47;;
67869;SDS011;54673;52.262;6.830;2022-11-24T06:20:32;1.95;;;1.13;;
67869;SDS011;54673;52.262;6.830;2022-11-24T06:22:58;3.77;;;1.10;;
67869;SDS011;54673;52.262;6.830;2022-11-24T06:25:24;3.08;;;1.10;;
67869;SDS011;54673;52.262;6.830;2022-11-24T06:27:50;5.47;;;1.20;;
67869;SDS011;54673;52.262;6.830;2022-11-24T06:30:16;2.15;;;1.20;;
67869;SDS011;54673;52.262;6.830;2022-11-24T06:32:41;4.13;;;1.10;;
67869;SDS011;54673;52.262;6.830;2022-11-24T06:35:12;3.40;;;1.10;;
67869;SDS011;54673;52.262;6.830;2022-11-24T06:37:38;3.47;;;1.20;;
67869;SDS011;54673;52.262;6.830;2022-11-24T06:40:04;3.42;;;1.40;;
67869;SDS011;54673;52.262;6.830;2022-11-24T06:42:33;3.60;;;1.20;;
67869;SDS011;54673;52.262;6.830;2022-11-24T06:44:59;4.80;;;1.38;;
67869;SDS011;54673;52.262;6.830;2022-11-24T06:47:24;2.87;;;1.10;;
67869;SDS011;54673;52.262;6.830;2022-11-24T06:49:50;3.15;;;1.30;;
67869;SDS011;54673;52.262;6.830;2022-11-24T06:52:15;3.13;;;1.10;;
67869;SDS011;54673;52.262;6.830;2022-11-24T06:54:41;4.83;;;1.47;;
67869;SDS011;54673;52.262;6.830;2022-11-24T06:57:07;2.03;;;1.10;;
67869;SDS011;54673;52.262;6.830;2022-11-24T06:59:32;2.47;;;1.10;;
67869;SDS011;54673;52.262;6.830;2022-11-24T07:01:58;2.92;;;1.00;;
67869;SDS011;54673;52.262;6.830;2022-11-24T07:04:24;2.87;;;1.40;;
67869;SDS011;54673;52.262;6.830;2022-11-24T07:06:49;4.53;;;1.40;;
67869;SDS011;54673;52.262;6.830;2022-11-24T07:09:15;3.15;;;1.08;;
67869;SDS011;54673;52.262;6.830;2022-11-24T07:11:40;3.20;;;1.10;;
67869;SDS011;54673;52.262;6.830;2022-11-24T07:14:06;2.42;;;1.10;;
67869;SDS011;54673;52.262;6.830;2022-11-24T07:16:32;3.93;;;1.60;;
67869;SDS011;54673;52.262;6.830;2022-11-24T07:18:58;3.65;;;1.05;;
67869;SDS011;54673;52.262;6.830;2022-11-24T07:21:25;3.10;;;1.43;;
67869;SDS011;54673;52.262;6.830;2022-11-24T07:23:52;3.22;;;0.80;;
67869;SDS011;54673;52.262;6.830;2022-11-24T07:26:20;2.85;;;1.13;;
67869;SDS011;54673;52.262;6.830;2022-11-24T07:28:46;3.37;;;0.90;;
67869;SDS011;54673;52.262;6.830;2022-11-24T07:31:16;2.42;;;1.10;;
67869;SDS011;54673;52.262;6.830;2022-11-24T07:33:47;4.27;;;1.00;;
67869;SDS011;54673;52.262;6.830;2022-11-24T07:36:14;3.08;;;1.30;;
67869;SDS011;54673;52.262;6.830;2022-11-24T07:38:39;4.23;;;1.17;;
67869;SDS011;54673;52.262;6.830;2022-11-24T07:41:06;2.53;;;1.00;;
67869;SDS011;54673;52.262;6.830;2022-11-24T07:43:34;4.00;;;1.15;;
67869;SDS011;54673;52.262;6.830;2022-11-24T07:46:01;2.10;;;0.90;;
67869;SDS011;54673;52.262;6.830;2022-11-24T07:48:28;2.97;;;1.13;;
67869;SDS011;54673;52.262;6.830;2022-11-24T07:50:53;6.03;;;1.40;;
67869;SDS011;54673;52.262;6.830;2022-11-24T07:53:19;2.80;;;1.13;;
67869;SDS011;54673;52.262;6.830;2022-11-24T07:55:51;4.33;;;1.37;;
67869;SDS011;54673;52.262;6.830;2022-11-24T07:58:22;2.67;;;1.00;;
67869;SDS011;54673;52.262;6.830;2022-11-24T08:00:47;3.27;;;1.00;;
67869;SDS011;54673;52.262;6.830;2022-11-24T08:03:13;2.78;;;1.40;;
67869;SDS011;54673;52.262;6.830;2022-11-24T08:05:39;3.43;;;1.50;;
67869;SDS011;54673;52.262;6.830;2022-11-24T08:08:05;3.20;;;1.30;;
67869;SDS011;54673;52.262;6.830;2022-11-24T08:10:30;4.07;;;1.47;;
67869;SDS011;54673;52.262;6.830;2022-11-24T08:12:59;5.47;;;1.07;;
67869;SDS011;54673;52.262;6.830;2022-11-24T08:15:25;5.55;;;1.45;;
67869;SDS011;54673;52.262;6.830;2022-11-24T08:17:51;3.75;;;1.08;;
67869;SDS011;54673;52.262;6.830;2022-11-24T08:20:17;1.93;;;0.90;;
67869;SDS011;54673;52.262;6.830;2022-11-24T08:22:42;5.17;;;1.17;;
67869;SDS011;54673;52.262;6.830;2022-11-24T08:25:08;6.33;;;1.50;;
67869;SDS011;54673;52.262;6.830;2022-11-24T08:27:35;3.92;;;1.20;;
67869;SDS011;54673;52.262;6.830;2022-11-24T08:30:00;5.67;;;1.20;;
67869;SDS011;54673;52.262;6.830;2022-11-24T08:32:26;2.30;;;1.23;;
67869;SDS011;54673;52.262;6.830;2022-11-24T08:34:51;4.17;;;1.47;;
67869;SDS011;54673;52.262;6.830;2022-11-24T08:37:17;4.27;;;1.30;;
67869;SDS011;54673;52.262;6.830;2022-11-24T08:39:43;4.05;;;1.30;;
67869;SDS011;54673;52.262;6.830;2022-11-24T08:42:08;3.43;;;1.60;;
67869;SDS011;54673;52.262;6.830;2022-11-24T08:44:34;6.33;;;1.27;;
67869;SDS011;54673;52.262;6.830;2022-11-24T08:46:59;3.63;;;1.30;;
67869;SDS011;54673;52.262;6.830;2022-11-24T08:49:25;4.87;;;1.50;;
67869;SDS011;54673;52.262;6.830;2022-11-24T08:51:50;4.63;;;1.40;;
67869;SDS011;54673;52.262;6.830;2022-11-24T08:54:16;4.82;;;1.42;;
67869;SDS011;54673;52.262;6.830;2022-11-24T08:56:43;3.50;;;1.20;;
67869;SDS011;54673;52.262;6.830;2022-11-24T08:59:11;5.15;;;1.35;;
67869;SDS011;54673;52.262;6.830;2022-11-24T09:01:37;3.72;;;1.58;;
67869;SDS011;54673;52.262;6.830;2022-11-24T09:04:03;3.43;;;1.37;;
67869;SDS011;54673;52.262;6.830;2022-11-24T09:06:29;4.03;;;1.60;;
67869;SDS011;54673;52.262;6.830;2022-11-24T09:08:55;4.10;;;1.37;;
67869;SDS011;54673;52.262;6.830;2022-11-24T09:11:22;4.15;;;1.48;;
67869;SDS011;54673;52.262;6.830;2022-11-24T09:13:48;1.83;;;1.30;;
67869;SDS011;54673;52.262;6.830;2022-11-24T09:16:15;2.55;;;1.20;;
67869;SDS011;54673;52.262;6.830;2022-11-24T09:18:43;3.53;;;1.47;;
67869;SDS011;54673;52.262;6.830;2022-11-24T09:23:42;3.03;;;1.20;;
67869;SDS011;54673;52.262;6.830;2022-11-24T09:26:11;3.13;;;1.33;;
67869;SDS011;54673;52.262;6.830;2022-11-24T09:28:38;2.40;;;1.30;;
67869;SDS011;54673;52.262;6.830;2022-11-24T09:31:05;4.30;;;1.73;;
67869;SDS011;54673;52.262;6.830;2022-11-24T09:33:33;3.78;;;1.38;;
67869;SDS011;54673;52.262;6.830;2022-11-24T09:36:00;3.15;;;1.40;;
67869;SDS011;54673;52.262;6.830;2022-11-24T09:38:25;5.03;;;1.60;;
67869;SDS011;54673;52.262;6.830;2022-11-24T09:40:52;4.50;;;1.55;;
67869;SDS011;54673;52.262;6.830;2022-11-24T09:43:33;5.37;;;1.60;;
67869;SDS011;54673;52.262;6.830;2022-11-24T09:46:48;3.00;;;1.30;;
67869;SDS011;54673;52.262;6.830;2022-11-24T09:49:31;3.33;;;1.60;;
67869;SDS011;54673;52.262;6.830;2022-11-24T09:52:02;3.75;;;1.40;;
67869;SDS011;54673;52.262;6.830;2022-11-24T09:54:33;4.55;;;1.60;;
67869;SDS011;54673;52.262;6.830;2022-11-24T09:57:05;4.47;;;1.40;;
67869;SDS011;54673;52.262;6.830;2022-11-24T09:59:35;3.60;;;1.67;;
67869;SDS011;54673;52.262;6.830;2022-11-24T10:02:00;1.67;;;1.50;;
67869;SDS011;54673;52.262;6.830;2022-11-24T10:04:27;4.38;;;1.40;;
67869;SDS011;54673;52.262;6.830;2022-11-24T10:07:08;3.37;;;1.70;;
67869;SDS011;54673;52.262;6.830;2022-11-24T10:31:40;8.55;;;1.85;;
67869;SDS011;54673;52.262;6.830;2022-11-24T10:34:09;4.43;;;1.80;;
67869;SDS011;54673;52.262;6.830;2022-11-24T10:36:50;4.43;;;1.63;;
67869;SDS011;54673;52.262;6.830;2022-11-24T10:39:39;5.27;;;2.03;;
67869;SDS011;54673;52.262;6.830;2022-11-24T10:42:34;4.72;;;1.70;;
67869;SDS011;54673;52.262;6.830;2022-11-24T10:47:37;5.33;;;1.93;;
67869;SDS011;54673;52.262;6.830;2022-11-24T10:58:20;2.08;;;1.40;;
67869;SDS011;54673;52.262;6.830;2022-11-24T11:00:54;6.30;;;1.80;;
67869;SDS011;54673;52.262;6.830;2022-11-24T11:03:24;3.83;;;1.33;;
67869;SDS011;54673;52.262;6.830;2022-11-24T11:06:10;3.83;;;1.20;;
67869;SDS011;54673;52.262;6.830;2022-11-24T11:08:37;4.78;;;1.40;;
67869;SDS011;54673;52.262;6.830;2022-11-24T11:11:13;3.17;;;1.23;;
67869;SDS011;54673;52.262;6.830;2022-11-24T11:13:51;4.47;;;1.47;;
67869;SDS011;54673;52.262;6.830;2022-11-24T11:16:37;2.97;;;1.17;;
67869;SDS011;54673;52.262;6.830;2022-11-24T11:22:04;4.22;;;1.73;;
67869;SDS011;54673;52.262;6.830;2022-11-24T11:24:38;6.82;;;1.52;;
67869;SDS011;54673;52.262;6.830;2022-11-24T11:27:20;3.87;;;1.33;;
67869;SDS011;54673;52.262;6.830;2022-11-24T11:29:47;2.88;;;1.05;;
67869;SDS011;54673;52.262;6.830;2022-11-24T11:32:23;3.87;;;1.10;;
67869;SDS011;54673;52.262;6.830;2022-11-24T11:34:51;4.72;;;1.00;;
67869;SDS011;54673;52.262;6.830;2022-11-24T11:37:19;3.58;;;1.27;;
67869;SDS011;54673;52.262;6.830;2022-11-24T11:39:49;2.67;;;1.17;;
67869;SDS011;54673;52.262;6.830;2022-11-24T11:45:01;3.80;;;1.27;;
67869;SDS011;54673;52.262;6.830;2022-11-24T11:55:32;2.90;;;1.20;;
67869;SDS011;54673;52.262;6.830;2022-11-24T11:58:21;2.90;;;0.80;;
67869;SDS011;54673;52.262;6.830;2022-11-24T12:01:12;3.58;;;1.00;;
67869;SDS011;54673;52.262;6.830;2022-11-24T12:06:47;1.83;;;1.20;;
67869;SDS011;54673;52.262;6.830;2022-11-24T12:09:36;3.10;;;1.08;;
67869;SDS011;54673;52.262;6.830;2022-11-24T12:12:27;3.53;;;1.37;;
67869;SDS011;54673;52.262;6.830;2022-11-24T12:17:51;2.90;;;0.90;;
67869;SDS011;54673;52.262;6.830;2022-11-24T12:23:47;1.92;;;0.93;;
67869;SDS011;54673;52.262;6.830;2022-11-24T12:32:34;4.35;;;1.23;;
67869;SDS011;54673;52.262;6.830;2022-11-24T12:35:24;1.70;;;0.70;;
67869;SDS011;54673;52.262;6.830;2022-11-24T12:40:42;1.67;;;0.80;;
67869;SDS011;54673;52.262;6.830;2022-11-24T12:43:32;3.08;;;1.00;;
67869;SDS011;54673;52.262;6.830;2022-11-24T12:51:43;2.05;;;0.90;;
67869;SDS011;54673;52.262;6.830;2022-11-24T12:54:13;2.90;;;0.80;;
67869;SDS011;54673;52.262;6.830;2022-11-24T13:04:45;4.85;;;0.80;;
67869;SDS011;54673;52.262;6.830;2022-11-24T13:12:54;3.08;;;0.80;;
67869;SDS011;54673;52.262;6.830;2022-11-24T13:15:25;3.43;;;1.00;;
67869;SDS011;54673;52.262;6.830;2022-11-24T13:17:52;2.47;;;0.88;;
67869;SDS011;54673;52.262;6.830;2022-11-24T13:22:47;3.28;;;1.08;;
67869;SDS011;54673;52.262;6.830;2022-11-24T13:27:57;1.30;;;0.77;;
67869;SDS011;54673;52.262;6.830;2022-11-24T13:33:17;3.28;;;1.15;;
67869;SDS011;54673;52.262;6.830;2022-11-24T13:41:58;1.27;;;0.90;;
67869;SDS011;54673;52.262;6.830;2022-11-24T13:49:37;1.60;;;0.80;;
67869;SDS011;54673;52.262;6.830;2022-11-24T13:55:17;2.03;;;1.42;;
67869;SDS011;54673;52.262;6.830;2022-11-24T14:03:00;3.67;;;0.93;;
67869;SDS011;54673;52.262;6.830;2022-11-24T14:05:35;1.93;;;0.80;;
67869;SDS011;54673;52.262;6.830;2022-11-24T14:08:03;1.88;;;1.05;;
67869;SDS011;54673;52.262;6.830;2022-11-24T14:10:32;1.10;;;0.80;;
67869;SDS011;54673;52.262;6.830;2022-11-24T14:13:22;1.83;;;0.75;;
67869;SDS011;54673;52.262;6.830;2022-11-24T14:18:34;1.27;;;0.90;;
67869;SDS011;54673;52.262;6.830;2022-11-24T14:24:15;2.67;;;0.90;;
67869;SDS011;54673;52.262;6.830;2022-11-24T14:26:42;1.00;;;0.70;;
67869;SDS011;54673;52.262;6.830;2022-11-24T14:29:15;1.67;;;0.70;;
67869;SDS011;54673;52.262;6.830;2022-11-24T14:31:57;1.60;;;0.70;;
67869;SDS011;54673;52.262;6.830;2022-11-24T14:34:25;2.85;;;0.90;;
67869;SDS011;54673;52.262;6.830;2022-11-24T14:36:52;1.83;;;0.90;;
67869;SDS011;54673;52.262;6.830;2022-11-24T14:39:20;2.15;;;0.80;;
67869;SDS011;54673;52.262;6.830;2022-11-24T14:42:33;1.10;;;0.80;;
67869;SDS011;54673;52.262;6.830;2022-11-24T14:44:48;2.30;;;0.87;;
67869;SDS011;54673;52.262;6.830;2022-11-24T14:47:30;1.63;;;0.82;;
67869;SDS011;54673;52.262;6.830;2022-11-24T14:52:35;0.80;;;0.70;;
67869;SDS011;54673;52.262;6.830;2022-11-24T14:55:55;2.35;;;0.80;;
67869;SDS011;54673;52.262;6.830;2022-11-24T14:58:19;1.40;;;0.90;;
67869;SDS011;54673;52.262;6.830;2022-11-24T15:01:17;2.45;;;1.00;;
67869;SDS011;54673;52.262;6.830;2022-11-24T15:06:49;0.90;;;0.80;;
67869;SDS011;54673;52.262;6.830;2022-11-24T15:14:51;1.48;;;0.90;;
67869;SDS011;54673;52.262;6.830;2022-11-24T15:17:19;1.67;;;1.00;;
67869;SDS011;54673;52.262;6.830;2022-11-24T15:19:49;1.05;;;0.93;;
67869;SDS011;54673;52.262;6.830;2022-11-24T15:22:32;1.98;;;0.75;;
67869;SDS011;54673;52.262;6.830;2022-11-24T15:25:24;1.00;;;0.90;;
67869;SDS011;54673;52.262;6.830;2022-11-24T15:27:52;1.00;;;0.90;;
67869;SDS011;54673;52.262;6.830;2022-11-24T15:30:18;0.83;;;0.77;;
67869;SDS011;54673;52.262;6.830;2022-11-24T15:32:47;1.67;;;0.90;;
67869;SDS011;54673;52.262;6.830;2022-11-24T15:35:21;1.77;;;0.63;;
67869;SDS011;54673;52.262;6.830;2022-11-24T15:37:48;2.25;;;0.75;;
67869;SDS011;54673;52.262;6.830;2022-11-24T15:40:14;2.10;;;1.00;;
67869;SDS011;54673;52.262;6.830;2022-11-24T15:42:40;1.13;;;0.80;;
67869;SDS011;54673;52.262;6.830;2022-11-24T15:45:06;2.55;;;0.90;;
67869;SDS011;54673;52.262;6.830;2022-11-24T15:47:33;5.23;;;1.03;;
67869;SDS011;54673;52.262;6.830;2022-11-24T15:49:59;1.08;;;0.70;;
67869;SDS011;54673;52.262;6.830;2022-11-24T15:52:24;1.90;;;0.83;;
67869;SDS011;54673;52.262;6.830;2022-11-24T15:54:51;5.30;;;0.90;;
67869;SDS011;54673;52.262;6.830;2022-11-24T15:57:19;2.33;;;0.90;;
67869;SDS011;54673;52.262;6.830;2022-11-24T15:59:45;0.90;;;0.70;;
67869;SDS011;54673;52.262;6.830;2022-11-24T16:02:10;3.00;;;1.10;;
67869;SDS011;54673;52.262;6.830;2022-11-24T16:04:36;1.43;;;0.70;;
67869;SDS011;54673;52.262;6.830;2022-11-24T16:07:05;1.05;;;0.80;;
67869;SDS011;54673;52.262;6.830;2022-11-24T16:09:37;3.07;;;0.90;;
67869;SDS011;54673;52.262;6.830;2022-11-24T16:12:02;1.98;;;0.90;;
67869;SDS011;54673;52.262;6.830;2022-11-24T16:14:29;4.07;;;0.63;;
67869;SDS011;54673;52.262;6.830;2022-11-24T16:16:54;2.22;;;0.80;;
67869;SDS011;54673;52.262;6.830;2022-11-24T16:19:20;1.83;;;0.80;;
67869;SDS011;54673;52.262;6.830;2022-11-24T16:21:46;1.90;;;0.77;;
67869;SDS011;54673;52.262;6.830;2022-11-24T16:24:12;3.35;;;0.98;;
67869;SDS011;54673;52.262;6.830;2022-11-24T16:26:37;2.37;;;0.80;;
67869;SDS011;54673;52.262;6.830;2022-11-24T16:29:03;1.13;;;0.63;;
67869;SDS011;54673;52.262;6.830;2022-11-24T16:31:29;2.25;;;0.90;;
67869;SDS011;54673;52.262;6.830;2022-11-24T16:33:55;1.50;;;0.90;;
67869;SDS011;54673;52.262;6.830;2022-11-24T16:36:20;2.40;;;0.70;;
67869;SDS011;54673;52.262;6.830;2022-11-24T16:38:46;3.22;;;0.70;;
67869;SDS011;54673;52.262;6.830;2022-11-24T16:41:11;2.27;;;0.70;;
67869;SDS011;54673;52.262;6.830;2022-11-24T16:43:37;2.42;;;0.60;;
67869;SDS011;54673;52.262;6.830;2022-11-24T16:46:19;2.20;;;0.60;;
67869;SDS011;54673;52.262;6.830;2022-11-24T16:48:47;1.30;;;0.75;;
67869;SDS011;54673;52.262;6.830;2022-11-24T16:51:14;1.92;;;0.70;;
67869;SDS011;54673;52.262;6.830;2022-11-24T16:53:40;2.20;;;0.63;;
67869;SDS011;54673;52.262;6.830;2022-11-24T16:56:07;1.35;;;0.73;;
67869;SDS011;54673;52.262;6.830;2022-11-24T16:58:35;1.20;;;0.67;;
67869;SDS011;54673;52.262;6.830;2022-11-24T17:01:03;2.60;;;0.77;;
67869;SDS011;54673;52.262;6.830;2022-11-24T17:03:30;1.35;;;0.70;;
67869;SDS011;54673;52.262;6.830;2022-11-24T17:06:03;1.17;;;0.70;;
67869;SDS011;54673;52.262;6.830;2022-11-24T17:08:31;1.70;;;0.60;;
67869;SDS011;54673;52.262;6.830;2022-11-24T17:11:05;1.77;;;0.70;;
67869;SDS011;54673;52.262;6.830;2022-11-24T17:13:36;1.33;;;0.70;;
67869;SDS011;54673;52.262;6.830;2022-11-24T17:16:03;1.85;;;0.98;;